15:48
Airports
History
Links
Donate
Help keep this website running!
PayPal
Bitcoin
This page is community maintained. The information is intended for PC simulator navigation or reference.
Always use approved charts for navigation.
YATN
Atherton
Atherton (YATN)
Atherton, Queensland, Australia (4883)
4
Lat/Lng:17° 15' 23.04" S / 145° 30' 41.36" E
-17.2564 / 145.511489
Elevation:2450'ft / 747mMSL
ID / ICAO:YATN
Runways:1
Longest:15-33
Grass 1,384m / 4,541ft
Nearby Weather15:30 GMT 2018-01-18
Nearby weather at YBCS, Cairns Intl located 30.5 nautical miles from YATN
Altimeter: 29.83
Visibility: 6.2 statute miles
Wind: 10 knots (from 160°)
Temp: 26°c / 79°f
Humidity: 74.0%

METAR: YBCS 181530Z 16010KT 9999 -SHRA SCT023 BKN040 26/21 Q1010 NOSIG

(Powered by phpweather)
Airport Radio Frequencies
CTAF: 126.7
Runway 15 / 33
Dimensions:1384 x 88.1m 4541' x 289'ft
Surface:Grass
Runway 15 [A]Runway 33 [B]
Heading:153°TH 333°TH
Lat:
Lng:
17° 15' 2.89"S
145° 30' 30.98"E
17° 15' 43.19"S
145° 30' 51.74"E
User Notes and Comments
17° 15' 23.04" S / 145° 30' 41.36" E
Distance To
Airport ID:
Nearby Airports
4 BARRONUP 6.8 NM
YBNP SSE 147°
(U) Mareeba 14.1 NM
YMBA NNW 335°
4 DALGETY 18.6 NM
YDTY SSW 199°
4 DIMBULAH 28.8 NM
YDIM WNW 287°
(C) Cairns Intl 30.5 NM
YBCS ( WX ) NNE 31°
4 BRAMSTON BEACH 33.5 NM
YBMT E 100°
4 COAST WATCHER HEIGHTS 33.8 NM
YCWG NNE 20°
VFR Chart
Flight Planning at SkyVector.com